Time;durP1;ratioP1;P1;durP2;ratioP2;P2;SDS_P1;SDS_P2;PMS_P1;PMS_P2;Temp;Humidity;BMP_temperature;BMP_pressure;BME280_temperature;BME280_humidity;BME280_pressure;Samples;Min_cycle;Max_cycle;Signal;HPM_P1;HPM_P2
2022/07/08 00:01:29;;;;;;;11.68;2.67;;;14.30;99.90;;;;;;4945280;28;20066;-81
2022/07/08 00:03:54;;;;;;;10.00;2.17;;;14.30;99.90;;;;;;4944696;28;20100;-81
2022/07/08 00:06:20;;;;;;;10.02;2.10;;;14.20;99.90;;;;;;4959668;28;20527;-81
2022/07/08 00:08:46;;;;;;;11.75;2.20;;;14.20;99.90;;;;;;4944296;28;20514;-81
2022/07/08 00:11:11;;;;;;;8.20;2.47;;;14.20;99.90;;;;;;4959232;28;20034;-81
2022/07/08 00:13:37;;;;;;;10.98;3.17;;;14.20;99.90;;;;;;4943986;28;20035;-81
2022/07/08 00:16:03;;;;;;;9.88;1.95;;;14.10;99.90;;;;;;4943319;28;20039;-81
2022/07/08 00:18:32;;;;;;;10.80;1.88;;;14.20;99.90;;;;;;4959219;28;20572;-81
2022/07/08 00:20:57;;;;;;;11.25;2.05;;;14.10;99.90;;;;;;4959703;28;20070;-81
2022/07/08 00:23:23;;;;;;;9.80;2.20;;;14.10;99.90;;;;;;4955573;28;20101;-81
2022/07/08 00:25:49;;;;;;;12.07;2.35;;;14.10;99.90;;;;;;4943229;28;20067;-81
2022/07/08 00:28:14;;;;;;;9.82;1.98;;;14.00;99.90;;;;;;4944495;28;20051;-81
2022/07/08 00:30:40;;;;;;;6.13;2.42;;;14.10;99.90;;;;;;4941341;28;20039;-81
2022/07/08 00:59:16;;;;;;;17.35;2.00;;;13.90;99.90;;;;;;4939311;29;20054;-81
2022/07/08 01:01:42;;;;;;;5.55;1.67;;;13.90;99.90;;;;;;4956093;28;20389;-81
2022/07/08 01:04:08;;;;;;;11.23;2.13;;;13.80;99.90;;;;;;4959897;28;20046;-81
2022/07/08 01:06:34;;;;;;;9.02;2.38;;;13.80;1.00;;;;;;4961822;28;20046;-81
2022/07/08 01:09:01;;;;;;;8.55;2.30;;;13.70;1.00;;;;;;4962227;28;20038;-81
2022/07/08 01:11:27;;;;;;;7.30;1.75;;;13.70;1.00;;;;;;4951601;28;20047;-81
2022/07/08 01:13:53;;;;;;;9.50;2.00;;;13.60;1.00;;;;;;4944175;28;20062;-81
2022/07/08 01:16:18;;;;;;;11.55;2.00;;;13.60;1.00;;;;;;4944186;28;20129;-81
2022/07/08 01:18:45;;;;;;;9.20;1.95;;;13.60;1.00;;;;;;4944976;28;20515;-81
2022/07/08 01:21:10;;;;;;;7.97;2.05;;;13.50;1.00;;;;;;4959655;28;20557;-81
2022/07/08 01:23:36;;;;;;;8.15;1.98;;;13.40;1.00;;;;;;4944808;28;20038;-81
2022/07/08 01:26:11;;;;;;;6.00;1.90;;;13.40;1.00;;;;;;4960240;28;20064;-81
2022/07/08 01:28:44;;;;;;;10.27;2.00;;;13.40;1.00;;;;;;4959704;28;20061;-81
2022/07/08 01:31:10;;;;;;;11.00;1.75;;;13.30;1.00;;;;;;4943548;28;20074;-81
2022/07/08 01:33:36;;;;;;;9.30;2.05;;;13.30;1.00;;;;;;4945487;28;20035;-81
2022/07/08 01:36:02;;;;;;;9.02;2.00;;;13.30;1.00;;;;;;4939156;28;20035;-81
2022/07/08 01:38:28;;;;;;;13.70;2.30;;;13.30;1.00;;;;;;4960569;28;20047;-81
2022/07/08 01:40:53;;;;;;;9.32;2.03;;;13.30;1.00;;;;;;4943940;28;20047;-81
2022/07/08 01:43:20;;;;;;;9.20;2.10;;;13.20;1.00;;;;;;4955449;28;20043;-81
2022/07/08 01:45:46;;;;;;;7.47;2.35;;;13.20;1.00;;;;;;4941411;28;20133;-81
2022/07/08 01:48:12;;;;;;;7.75;2.25;;;13.10;1.00;;;;;;4941885;28;20517;-80
2022/07/08 01:50:41;;;;;;;8.18;2.47;;;13.10;1.00;;;;;;4957164;28;20050;-81
2022/07/08 01:53:06;;;;;;;5.28;1.80;;;13.10;1.00;;;;;;4957596;28;20080;-81
2022/07/08 01:55:35;;;;;;;9.23;2.10;;;13.10;17.20;;;;;;4956957;28;20118;-81
2022/07/08 01:58:00;;;;;;;9.57;2.45;;;13.10;6.80;;;;;;4958737;28;20039;-81
2022/07/08 02:00:26;;;;;;;8.25;2.10;;;13.00;25.30;;;;;;4943448;28;20050;-81
2022/07/08 02:02:51;;;;;;;10.25;2.30;;;13.00;37.30;;;;;;4958456;28;20035;-81
2022/07/08 02:05:17;;;;;;;6.95;1.83;;;13.10;29.30;;;;;;4960340;28;20046;-81
2022/07/08 02:07:43;;;;;;;8.13;2.20;;;13.00;28.50;;;;;;4959230;28;20033;-81
2022/07/08 02:10:09;;;;;;;9.63;2.20;;;12.90;65.40;;;;;;4958453;28;20603;-81
2022/07/08 02:12:35;;;;;;;6.13;2.20;;;12.90;99.90;;;;;;4942369;28;20057;-81
2022/07/08 02:15:04;;;;;;;9.95;2.30;;;12.80;90.30;;;;;;4940703;28;20035;-81
2022/07/08 02:17:35;;;;;;;9.88;2.63;;;12.80;95.60;;;;;;4942451;28;20051;-81
2022/07/08 02:20:04;;;;;;;9.90;1.90;;;12.80;99.90;;;;;;4939351;29;20416;-81
2022/07/08 02:22:30;;;;;;;8.48;2.72;;;12.70;99.90;;;;;;4941989;28;20766;-81
2022/07/08 02:24:56;;;;;;;12.18;2.20;;;12.60;99.90;;;;;;4959183;28;20038;-81
2022/07/08 02:27:22;;;;;;;8.13;2.25;;;12.60;99.90;;;;;;4941745;28;20034;-81
2022/07/08 02:29:47;;;;;;;9.73;2.22;;;12.60;99.90;;;;;;4942662;28;20042;-81
2022/07/08 02:32:14;;;;;;;9.50;2.30;;;12.60;99.90;;;;;;4958784;28;20034;-81
2022/07/08 02:34:39;;;;;;;10.02;2.53;;;12.60;99.90;;;;;;4959736;28;20491;-81
2022/07/08 02:37:05;;;;;;;11.40;2.50;;;12.60;99.90;;;;;;4945425;28;20046;-81
2022/07/08 02:39:31;;;;;;;8.68;2.58;;;12.60;99.90;;;;;;4961614;28;20053;-81
2022/07/08 02:41:56;;;;;;;9.95;2.40;;;12.60;99.90;;;;;;4961138;28;20094;-81
2022/07/08 02:44:22;;;;;;;12.07;2.65;;;12.60;99.90;;;;;;4944335;28;20034;-81
2022/07/08 02:46:48;;;;;;;7.95;2.35;;;12.70;99.90;;;;;;4941232;28;20039;-80
2022/07/08 02:49:14;;;;;;;11.38;2.75;;;12.70;99.90;;;;;;4943982;28;20066;-80
2022/07/08 02:51:40;;;;;;;9.00;2.55;;;12.70;99.90;;;;;;4944582;28;20090;-81
2022/07/08 02:54:06;;;;;;;12.75;3.15;;;12.70;99.90;;;;;;4958651;28;20088;-80
2022/07/08 02:56:32;;;;;;;10.15;2.60;;;12.60;99.90;;;;;;4946756;28;20438;-81
2022/07/08 02:58:59;;;;;;;14.50;2.53;;;12.60;99.90;;;;;;4962096;28;20406;-80
2022/07/08 03:01:25;;;;;;;10.25;2.25;;;12.60;99.90;;;;;;4945136;28;20108;-80
2022/07/08 03:03:50;;;;;;;8.93;2.60;;;12.50;99.90;;;;;;4961241;28;20047;-81
2022/07/08 03:06:16;;;;;;;8.82;2.40;;;12.50;99.90;;;;;;4944441;28;20043;-81
2022/07/08 03:08:42;;;;;;;10.63;2.55;;;12.40;99.90;;;;;;4945402;28;20423;-80
2022/07/08 03:11:08;;;;;;;13.95;2.83;;;12.40;99.90;;;;;;4959176;28;20137;-81
2022/07/08 03:13:37;;;;;;;8.90;2.80;;;12.40;99.90;;;;;;4944790;28;20380;-81
2022/07/08 03:16:03;;;;;;;10.15;2.72;;;12.40;99.90;;;;;;4946129;28;20459;-81
2022/07/08 03:18:30;;;;;;;10.88;2.60;;;12.30;99.90;;;;;;4961254;28;20081;-81
2022/07/08 03:20:56;;;;;;;9.40;2.53;;;12.20;99.90;;;;;;4947674;28;20525;-81
2022/07/08 03:23:22;;;;;;;9.98;2.92;;;12.20;99.90;;;;;;4944281;28;20050;-81
2022/07/08 03:25:48;;;;;;;11.70;2.83;;;12.20;99.90;;;;;;4945593;28;20040;-81
2022/07/08 03:28:19;;;;;;;10.32;2.67;;;12.20;99.90;;;;;;4947223;28;20402;-81
2022/07/08 03:30:45;;;;;;;11.45;3.22;;;12.10;99.90;;;;;;4944443;28;20051;-81
2022/07/08 03:33:13;;;;;;;13.07;3.00;;;12.10;99.90;;;;;;4944837;28;20557;-81
2022/07/08 03:35:39;;;;;;;8.48;2.67;;;12.10;99.90;;;;;;4961853;28;20051;-81
2022/07/08 03:38:05;;;;;;;6.60;2.75;;;12.10;99.90;;;;;;4961572;28;20050;-81
2022/07/08 03:43:31;;;;;;;10.80;3.45;;;12.10;99.90;;;;;;4907624;29;20043;-81
2022/07/08 03:45:57;;;;;;;8.82;2.80;;;12.10;99.90;;;;;;4948685;28;20046;-81
2022/07/08 03:48:23;;;;;;;11.25;3.00;;;12.10;99.90;;;;;;4963187;28;20082;-81
2022/07/08 03:50:48;;;;;;;11.18;3.47;;;12.10;99.90;;;;;;4946581;28;20126;-81
2022/07/08 03:53:14;;;;;;;13.57;2.78;;;12.10;99.90;;;;;;4964872;28;20383;-81
2022/07/08 03:55:40;;;;;;;11.82;3.10;;;12.10;99.90;;;;;;4963742;28;20372;-81
2022/07/08 03:58:06;;;;;;;15.07;3.53;;;12.10;99.90;;;;;;4961977;28;20043;-80
2022/07/08 04:00:32;;;;;;;14.32;3.55;;;12.10;99.90;;;;;;4945050;29;20074;-81
2022/07/08 04:02:57;;;;;;;12.32;3.08;;;12.10;99.90;;;;;;4959976;28;20091;-81
2022/07/08 04:05:23;;;;;;;11.13;3.25;;;12.10;99.90;;;;;;4944479;28;20282;-81
2022/07/08 04:07:49;;;;;;;12.70;3.05;;;12.20;99.90;;;;;;4943728;28;20184;-81
2022/07/08 04:10:14;;;;;;;11.05;2.95;;;12.10;99.90;;;;;;4959894;28;20493;-80
2022/07/08 04:12:40;;;;;;;8.55;2.92;;;12.10;99.90;;;;;;4956528;28;20617;-80
2022/07/08 04:15:06;;;;;;;13.32;3.33;;;12.10;99.90;;;;;;4959523;28;20089;-81
2022/07/08 04:17:33;;;;;;;9.05;3.60;;;12.10;99.90;;;;;;4945966;28;20050;-81
2022/07/08 04:19:59;;;;;;;12.80;3.28;;;12.20;99.90;;;;;;4959655;28;20101;-81
2022/07/08 04:22:24;;;;;;;16.98;3.28;;;12.20;99.90;;;;;;4945306;28;20132;-81
2022/07/08 04:24:50;;;;;;;11.52;2.80;;;12.30;99.90;;;;;;4944694;28;20046;-80
2022/07/08 04:27:15;;;;;;;11.95;3.08;;;12.40;99.90;;;;;;4961356;28;20039;-81
2022/07/08 04:29:41;;;;;;;10.52;3.22;;;12.50;99.90;;;;;;4945716;28;20070;-80
2022/07/08 04:32:07;;;;;;;11.27;3.00;;;12.60;99.90;;;;;;4958985;28;20046;-81
2022/07/08 04:34:32;;;;;;;11.25;3.20;;;12.70;99.90;;;;;;4955973;28;20045;-81
2022/07/08 04:36:58;;;;;;;12.75;3.25;;;12.80;99.90;;;;;;4958934;28;20104;-81
2022/07/08 04:39:25;;;;;;;9.07;3.53;;;13.00;99.90;;;;;;4946546;28;20051;-81
2022/07/08 04:41:51;;;;;;;10.50;3.25;;;13.00;99.90;;;;;;4959669;28;20177;-80
2022/07/08 04:44:16;;;;;;;12.05;3.75;;;13.20;99.90;;;;;;4943851;28;20137;-81
2022/07/08 04:46:42;;;;;;;11.77;3.00;;;13.40;99.90;;;;;;4955495;28;20350;-80
2022/07/08 04:49:08;;;;;;;10.30;2.92;;;13.50;99.90;;;;;;4942927;28;20077;-81
2022/07/08 04:51:33;;;;;;;10.50;2.90;;;13.70;99.90;;;;;;4959102;28;20039;-81
2022/07/08 04:53:59;;;;;;;11.13;3.42;;;13.60;99.90;;;;;;4960391;28;20757;-81
2022/07/08 04:56:25;;;;;;;10.48;3.13;;;13.80;99.90;;;;;;4958257;28;20117;-81
2022/07/08 04:58:50;;;;;;;10.05;3.40;;;13.80;99.90;;;;;;4945767;28;20082;-81
2022/07/08 05:01:18;;;;;;;10.93;2.90;;;13.90;99.90;;;;;;4945907;28;20046;-81
2022/07/08 05:03:46;;;;;;;12.32;3.25;;;13.90;99.90;;;;;;4942881;28;20047;-82
2022/07/08 05:06:12;;;;;;;8.77;3.03;;;14.10;99.90;;;;;;4959431;28;20053;-81
2022/07/08 05:08:37;;;;;;;14.20;2.88;;;14.10;99.90;;;;;;4961553;28;20043;-81
2022/07/08 05:11:03;;;;;;;11.20;3.28;;;14.10;99.90;;;;;;4960609;28;20063;-81
2022/07/08 05:13:29;;;;;;;12.30;3.03;;;14.20;99.90;;;;;;4943429;28;20071;-81
2022/07/08 05:15:54;;;;;;;9.38;2.85;;;14.20;99.90;;;;;;4961783;28;20492;-81
2022/07/08 05:18:20;;;;;;;13.30;2.83;;;14.40;99.90;;;;;;4945998;28;20047;-81
2022/07/08 05:20:46;;;;;;;13.70;3.10;;;14.40;99.90;;;;;;4959614;28;20050;-81
2022/07/08 05:23:12;;;;;;;10.85;3.03;;;14.40;99.90;;;;;;4945452;28;20043;-81
2022/07/08 05:25:38;;;;;;;10.05;2.75;;;14.40;99.90;;;;;;4963448;28;20042;-81
2022/07/08 05:28:03;;;;;;;11.57;2.83;;;14.50;99.90;;;;;;4963099;28;20561;-81
2022/07/08 05:30:29;;;;;;;9.02;2.70;;;14.70;99.90;;;;;;4945278;28;20039;-81
2022/07/08 05:32:55;;;;;;;12.75;2.80;;;14.80;99.90;;;;;;4962832;28;20038;-81
2022/07/08 05:35:20;;;;;;;11.23;2.80;;;14.90;99.90;;;;;;4961723;28;20047;-80
2022/07/08 05:37:46;;;;;;;11.65;2.60;;;14.90;99.90;;;;;;4947326;28;20045;-81
2022/07/08 05:40:12;;;;;;;9.88;2.65;;;15.00;99.90;;;;;;4963805;28;20050;-81
2022/07/08 05:42:39;;;;;;;14.25;2.83;;;15.20;99.90;;;;;;4959273;28;20049;-81
2022/07/08 05:45:05;;;;;;;8.32;2.95;;;15.10;99.90;;;;;;4944715;28;20062;-80
2022/07/08 05:47:31;;;;;;;9.77;2.55;;;15.20;99.90;;;;;;4946448;28;20458;-80
2022/07/08 05:49:57;;;;;;;10.05;2.90;;;15.20;99.90;;;;;;4947128;28;20039;-81
2022/07/08 05:52:23;;;;;;;12.23;2.58;;;15.50;99.90;;;;;;4948539;28;20497;-81
2022/07/08 05:54:48;;;;;;;10.23;3.08;;;15.70;99.90;;;;;;4945076;28;20031;-84
2022/07/08 05:57:16;;;;;;;9.63;2.95;;;15.80;99.90;;;;;;4960894;28;20054;-84
2022/07/08 05:59:42;;;;;;;6.65;2.30;;;15.80;96.50;;;;;;4942228;29;20043;-84
2022/07/08 06:02:08;;;;;;;9.48;2.95;;;15.70;99.90;;;;;;4940783;28;20055;-84
2022/07/08 06:04:37;;;;;;;6.50;2.08;;;15.70;99.40;;;;;;4959725;28;20074;-84
2022/07/08 06:07:03;;;;;;;11.35;2.60;;;15.80;99.90;;;;;;4965692;28;20047;-84
2022/07/08 06:09:29;;;;;;;10.23;2.67;;;15.70;99.90;;;;;;4947641;28;20043;-84
2022/07/08 06:11:54;;;;;;;12.82;3.30;;;15.80;99.90;;;;;;4944276;28;20050;-84
2022/07/08 06:14:20;;;;;;;12.02;2.38;;;15.80;99.90;;;;;;4947218;28;20038;-84
2022/07/08 06:16:49;;;;;;;10.20;2.22;;;15.90;82.20;;;;;;4947884;28;20391;-85
2022/07/08 06:19:15;;;;;;;11.55;2.85;;;16.00;78.40;;;;;;4945616;28;20483;-84
2022/07/08 06:21:41;;;;;;;6.00;2.05;;;16.10;90.70;;;;;;4946205;28;20054;-84
2022/07/08 06:24:10;;;;;;;9.15;2.78;;;16.10;99.90;;;;;;4945534;28;20046;-85
2022/07/08 06:26:36;;;;;;;12.95;2.40;;;16.20;99.90;;;;;;4941458;29;20518;-84
2022/07/08 06:29:03;;;;;;;10.85;2.35;;;16.30;55.40;;;;;;4946096;28;20494;-85
2022/07/08 06:31:28;;;;;;;15.95;3.25;;;16.30;99.90;;;;;;4943748;28;20042;-84
2022/07/08 06:33:57;;;;;;;9.32;2.47;;;16.50;93.30;;;;;;4945985;28;20065;-84
2022/07/08 06:36:24;;;;;;;8.77;2.33;;;16.50;84.10;;;;;;4958961;28;20046;-85
2022/07/08 06:38:50;;;;;;;10.10;3.33;;;16.60;30.50;;;;;;4959715;28;20049;-85
2022/07/08 06:41:15;;;;;;;8.32;2.35;;;16.70;99.90;;;;;;4945233;28;20047;-84
2022/07/08 06:43:41;;;;;;;5.80;2.17;;;16.70;36.80;;;;;;4958700;28;20035;-85
2022/07/08 06:46:07;;;;;;;10.90;2.80;;;16.80;87.80;;;;;;4943845;28;20514;-84
2022/07/08 06:48:35;;;;;;;6.53;2.35;;;16.90;61.70;;;;;;4961350;28;20057;-84
2022/07/08 06:51:00;;;;;;;8.40;2.45;;;16.90;1.00;;;;;;4960714;28;20047;-84
2022/07/08 06:53:26;;;;;;;7.53;2.40;;;17.00;1.00;;;;;;4954567;28;20045;-84
2022/07/08 06:55:51;;;;;;;9.82;2.38;;;17.10;1.00;;;;;;4944558;28;20224;-84
2022/07/08 06:58:17;;;;;;;11.38;2.90;;;17.30;84.00;;;;;;4957572;28;20117;-84
2022/07/08 07:00:43;;;;;;;11.88;2.63;;;17.10;1.00;;;;;;4943674;28;20095;-84
2022/07/08 07:03:09;;;;;;;18.73;2.90;;;17.30;22.50;;;;;;4945929;28;20314;-85
2022/07/08 07:05:34;;;;;;;9.77;2.40;;;17.40;1.00;;;;;;4939576;28;20051;-84
2022/07/08 07:08:00;;;;;;;10.70;2.63;;;17.40;1.00;;;;;;4943729;28;20144;-85
2022/07/08 07:10:26;;;;;;;12.18;2.42;;;17.50;1.00;;;;;;4946372;28;20069;-85
2022/07/08 07:12:51;;;;;;;13.38;2.60;;;17.50;1.00;;;;;;4945862;28;20035;-84
2022/07/08 07:15:17;;;;;;;7.93;2.40;;;17.70;5.70;;;;;;4960005;28;20399;-84
2022/07/08 07:17:43;;;;;;;10.65;2.63;;;17.60;1.00;;;;;;4941562;28;20125;-84
2022/07/08 07:20:10;;;;;;;8.63;2.70;;;17.80;1.00;;;;;;4943198;28;20038;-83
2022/07/08 07:22:36;;;;;;;7.65;2.03;;;18.00;1.00;;;;;;4943882;28;20580;-84
2022/07/08 07:25:02;;;;;;;12.13;2.88;;;17.90;99.90;;;;;;4942203;28;20046;-84
2022/07/08 07:27:28;;;;;;;8.02;2.20;;;18.00;1.00;;;;;;4941103;28;20197;-84
2022/07/08 07:29:53;;;;;;;12.43;2.33;;;18.10;1.00;;;;;;4958901;28;20113;-84
2022/07/08 07:32:19;;;;;;;11.27;2.85;;;18.30;99.90;;;;;;4942109;28;20126;-84
2022/07/08 07:34:44;;;;;;;8.63;2.20;;;18.10;1.00;;;;;;4959126;28;20478;-84
2022/07/08 07:37:10;;;;;;;10.50;2.20;;;18.20;99.90;;;;;;4960493;28;20046;-84
2022/07/08 07:39:37;;;;;;;7.65;2.10;;;18.30;1.00;;;;;;4960642;28;20120;-84
2022/07/08 07:42:03;;;;;;;9.20;2.60;;;18.40;1.00;;;;;;4943612;28;20391;-84
2022/07/08 07:44:28;;;;;;;11.77;2.63;;;18.30;1.00;;;;;;4947662;28;20038;-84
2022/07/08 07:46:54;;;;;;;4.72;2.05;;;18.20;1.00;;;;;;4946631;28;20430;-84
2022/07/08 07:49:20;;;;;;;8.18;2.53;;;18.20;1.00;;;;;;4946222;28;20759;-84
2022/07/08 07:51:45;;;;;;;10.80;2.70;;;18.20;1.00;;;;;;4946908;28;20632;-84
2022/07/08 07:54:11;;;;;;;6.80;2.30;;;18.50;99.90;;;;;;4962067;28;20406;-84
2022/07/08 07:56:37;;;;;;;7.90;2.20;;;18.50;99.90;;;;;;4945856;28;20078;-85
2022/07/08 07:59:03;;;;;;;8.32;1.92;;;18.50;99.90;;;;;;4951504;28;20126;-84
2022/07/08 08:01:28;;;;;;;8.55;2.20;;;18.30;99.90;;;;;;4941999;28;20051;-84
2022/07/08 08:03:54;;;;;;;9.98;3.15;;;18.30;99.90;;;;;;4943434;28;20132;-84
2022/07/08 08:06:20;;;;;;;10.65;2.10;;;18.50;99.90;;;;;;4934591;28;20046;-84
2022/07/08 08:08:46;;;;;;;8.13;2.47;;;18.80;1.00;;;;;;4944589;28;20034;-84
2022/07/08 08:11:12;;;;;;;8.30;2.58;;;18.70;99.90;;;;;;4943362;28;20439;-84
2022/07/08 08:13:37;;;;;;;8.23;2.20;;;19.00;99.90;;;;;;4957449;28;20839;-84
2022/07/08 08:16:03;;;;;;;9.10;2.28;;;18.90;99.90;;;;;;4955213;28;20074;-84
2022/07/08 08:18:29;;;;;;;7.40;2.60;;;18.80;99.90;;;;;;4960143;28;20130;-84
2022/07/08 08:20:55;;;;;;;8.52;2.47;;;19.00;99.90;;;;;;4942312;28;20074;-84
2022/07/08 08:23:20;;;;;;;6.32;2.22;;;19.10;1.00;;;;;;4941504;28;20105;-84
2022/07/08 08:25:46;;;;;;;8.35;2.63;;;19.10;99.90;;;;;;4960525;28;20449;-84
2022/07/08 08:28:12;;;;;;;6.53;2.15;;;19.10;99.90;;;;;;4938842;28;20097;-84
2022/07/08 08:30:38;;;;;;;9.88;2.40;;;19.00;99.90;;;;;;4962603;28;20058;-84
2022/07/08 08:33:04;;;;;;;7.10;2.65;;;19.00;99.90;;;;;;4939502;28;20121;-85
2022/07/08 08:35:29;;;;;;;7.20;2.50;;;19.00;99.90;;;;;;4946624;28;20149;-84
2022/07/08 08:37:55;;;;;;;8.63;2.90;;;19.10;99.90;;;;;;4944380;28;20402;-85
2022/07/08 08:40:22;;;;;;;7.72;2.70;;;19.10;99.90;;;;;;4953947;28;20042;-84
2022/07/08 08:42:47;;;;;;;8.27;2.35;;;19.10;99.90;;;;;;4952847;28;20050;-84
2022/07/08 08:45:13;;;;;;;10.48;2.45;;;19.00;99.90;;;;;;4945379;28;20051;-86
2022/07/08 08:47:39;;;;;;;7.28;2.38;;;18.70;99.90;;;;;;4940875;28;20052;-85
2022/07/08 08:52:54;;;;;;;7.63;2.50;;;19.00;99.90;;;;;;4961937;28;20038;-84
2022/07/08 08:55:29;;;;;;;8.13;2.60;;;18.90;99.90;;;;;;4941836;28;20039;-85
2022/07/08 08:57:59;;;;;;;10.40;2.60;;;19.10;99.90;;;;;;4945594;28;20049;-85
2022/07/08 09:00:27;;;;;;;7.38;2.47;;;19.30;99.90;;;;;;4943721;28;20207;-84
2022/07/08 09:02:53;;;;;;;12.23;2.53;;;19.20;99.90;;;;;;4948481;28;20097;-84
2022/07/08 09:05:23;;;;;;;6.35;2.42;;;19.50;99.90;;;;;;4960101;28;20114;-85
2022/07/08 09:07:50;;;;;;;7.20;2.40;;;19.50;99.90;;;;;;4941176;28;20035;-83
2022/07/08 09:10:17;;;;;;;6.00;2.60;;;19.40;99.90;;;;;;4953094;28;20110;-84
2022/07/08 09:13:12;;;;;;;5.25;2.05;;;19.60;99.90;;;;;;4946432;28;20126;-84
2022/07/08 09:15:40;;;;;;;7.68;2.20;;;19.50;99.90;;;;;;4964703;28;20035;-85
2022/07/08 09:18:17;;;;;;;10.50;2.47;;;19.80;99.90;;;;;;4949209;28;20051;-85
2022/07/08 09:20:53;;;;;;;4.95;2.20;;;19.90;99.90;;;;;;4948245;28;20042;-84
2022/07/08 09:23:23;;;;;;;5.70;1.98;;;19.90;99.90;;;;;;4947155;28;20038;-85
2022/07/08 09:25:57;;;;;;;9.63;2.17;;;19.90;99.90;;;;;;4948278;28;20039;-84
2022/07/08 09:28:32;;;;;;;6.72;2.17;;;19.80;99.90;;;;;;4957076;28;20458;-84
2022/07/08 09:31:01;;;;;;;6.80;2.33;;;19.90;99.90;;;;;;4940824;28;20039;-84
2022/07/08 09:33:27;;;;;;;5.25;2.15;;;20.00;99.90;;;;;;4950632;28;20035;-84
2022/07/08 09:35:55;;;;;;;11.93;2.20;;;20.10;99.90;;;;;;4959162;28;20074;-84
2022/07/08 09:38:22;;;;;;;8.32;2.30;;;20.10;99.90;;;;;;4944823;28;20054;-84
2022/07/08 09:40:59;;;;;;;5.15;2.25;;;20.10;99.90;;;;;;4961308;28;20401;-85
2022/07/08 09:43:29;;;;;;;6.15;2.17;;;20.10;99.90;;;;;;4956405;28;20046;-85
2022/07/08 09:46:03;;;;;;;5.97;2.10;;;20.20;99.90;;;;;;4958445;28;20110;-85
2022/07/08 09:48:29;;;;;;;8.17;2.53;;;20.20;99.90;;;;;;4956365;28;20125;-85
2022/07/08 09:50:55;;;;;;;7.28;2.50;;;20.10;99.90;;;;;;4961036;28;20090;-84
2022/07/08 09:53:26;;;;;;;5.90;2.22;;;20.20;95.00;;;;;;4939770;28;20089;-84
2022/07/08 09:55:54;;;;;;;5.80;2.45;;;20.10;99.90;;;;;;4944111;28;20057;-84
2022/07/08 09:58:23;;;;;;;5.53;2.13;;;20.20;97.70;;;;;;4953059;28;20639;-85
2022/07/08 10:00:50;;;;;;;6.53;2.40;;;20.20;99.90;;;;;;4938382;28;20069;-85
2022/07/08 10:03:17;;;;;;;4.15;2.03;;;20.20;99.90;;;;;;4955423;28;20057;-84
2022/07/08 10:05:43;;;;;;;12.65;2.60;;;20.20;99.90;;;;;;4954608;28;20042;-85
2022/07/08 10:08:10;;;;;;;6.82;2.13;;;20.40;99.90;;;;;;4943400;28;20035;-84
2022/07/08 10:10:37;;;;;;;9.40;2.47;;;20.50;99.90;;;;;;4961412;28;20081;-85
2022/07/08 10:13:06;;;;;;;9.30;2.58;;;20.50;99.90;;;;;;4956836;28;20486;-85
2022/07/08 10:15:34;;;;;;;9.55;2.60;;;21.00;99.90;;;;;;4954712;28;20031;-85
2022/07/08 10:18:11;;;;;;;7.18;2.70;;;20.60;99.90;;;;;;4944645;28;20086;-85
2022/07/08 10:20:39;;;;;;;8.18;2.45;;;20.90;99.90;;;;;;4959797;28;20402;-85
2022/07/08 10:23:09;;;;;;;7.57;2.65;;;20.80;99.90;;;;;;4939071;28;20050;-85
2022/07/08 10:25:35;;;;;;;6.30;2.22;;;21.00;99.90;;;;;;4956698;28;20503;-85
2022/07/08 10:28:05;;;;;;;6.28;3.00;;;20.80;99.90;;;;;;4955232;28;20046;-84
2022/07/08 10:30:48;;;;;;;5.00;2.00;;;20.90;99.90;;;;;;4959769;28;20122;-85
2022/07/08 10:33:25;;;;;;;9.43;2.65;;;21.00;99.90;;;;;;4946195;28;20039;-84
2022/07/08 10:36:07;;;;;;;6.75;2.33;;;20.90;92.30;;;;;;4946492;28;20344;-85
2022/07/08 10:38:39;;;;;;;7.15;2.60;;;20.90;91.60;;;;;;4944402;28;20042;-84
2022/07/08 10:41:10;;;;;;;8.02;2.63;;;20.60;99.90;;;;;;4962153;28;20043;-84
2022/07/08 10:43:37;;;;;;;7.50;2.38;;;20.60;99.90;;;;;;4955567;28;20446;-85
2022/07/08 10:46:10;;;;;;;6.22;2.50;;;20.50;99.90;;;;;;4942914;28;20118;-85
2022/07/08 10:48:41;;;;;;;10.15;2.67;;;20.70;99.90;;;;;;4939244;28;20671;-85
2022/07/08 10:51:24;;;;;;;7.18;2.50;;;21.20;99.90;;;;;;4943120;28;20533;-85
2022/07/08 10:53:56;;;;;;;8.63;3.03;;;21.70;99.90;;;;;;4948621;28;20221;-85
2022/07/08 10:56:48;;;;;;;6.47;2.50;;;21.30;97.60;;;;;;4943827;28;20042;-85
2022/07/08 10:59:18;;;;;;;9.07;2.65;;;21.20;99.90;;;;;;4944774;28;20046;-85
2022/07/08 11:01:55;;;;;;;8.15;2.70;;;21.20;90.60;;;;;;4942459;28;20113;-85
2022/07/08 11:04:43;;;;;;;6.22;2.30;;;21.70;96.10;;;;;;4942169;28;20403;-85
2022/07/08 11:07:14;;;;;;;8.85;2.40;;;21.70;79.30;;;;;;4946973;28;20082;-85
2022/07/08 11:09:41;;;;;;;7.80;2.20;;;21.80;99.90;;;;;;4956795;28;20039;-85
2022/07/08 11:12:13;;;;;;;6.30;2.30;;;22.20;71.50;;;;;;4951159;28;20511;-85
2022/07/08 11:14:44;;;;;;;8.85;2.47;;;22.20;97.30;;;;;;4960549;28;20494;-85
2022/07/08 11:17:21;;;;;;;9.20;2.17;;;22.10;88.90;;;;;;4943766;28;20042;-85
2022/07/08 11:19:50;;;;;;;7.43;2.72;;;22.50;99.90;;;;;;4962591;28;20031;-85
2022/07/08 11:22:16;;;;;;;6.57;2.58;;;22.50;77.30;;;;;;4962972;28;20498;-85
2022/07/08 11:24:43;;;;;;;5.25;2.50;;;22.10;20.50;;;;;;4955128;28;20090;-85
2022/07/08 11:27:09;;;;;;;7.38;2.55;;;22.10;17.30;;;;;;4948247;28;20158;-84
2022/07/08 11:29:35;;;;;;;8.10;2.72;;;22.20;58.20;;;;;;4947826;28;20347;-84
2022/07/08 11:32:04;;;;;;;8.38;2.13;;;22.20;12.20;;;;;;4962387;28;20047;-85
2022/07/08 11:34:31;;;;;;;5.63;2.13;;;22.10;1.00;;;;;;4946382;28;20522;-85
2022/07/08 11:36:59;;;;;;;4.20;2.05;;;22.20;39.90;;;;;;4942688;28;20102;-85
2022/07/08 11:39:25;;;;;;;7.60;2.20;;;22.20;1.00;;;;;;4962592;28;20069;-86
2022/07/08 11:41:51;;;;;;;7.40;2.60;;;22.30;1.00;;;;;;4947308;28;20439;-85
2022/07/08 11:44:20;;;;;;;5.47;2.20;;;22.30;1.00;;;;;;4962876;28;20050;-84
2022/07/08 11:46:53;;;;;;;6.32;2.30;;;22.10;6.40;;;;;;4962575;28;20039;-85
2022/07/08 11:49:23;;;;;;;7.60;2.28;;;22.40;51.70;;;;;;4961388;28;20061;-85
2022/07/08 11:51:56;;;;;;;4.13;2.20;;;21.90;20.10;;;;;;4946601;28;20046;-85
2022/07/08 11:54:27;;;;;;;6.25;2.30;;;22.00;33.40;;;;;;4956793;28;20392;-85
2022/07/08 11:56:54;;;;;;;7.35;1.98;;;22.30;1.00;;;;;;4961785;28;20030;-85
2022/07/08 11:59:22;;;;;;;7.05;2.30;;;22.70;1.00;;;;;;4976052;28;20047;-85
2022/07/08 12:01:49;;;;;;;6.95;2.33;;;22.40;26.90;;;;;;4964394;28;20105;-85
2022/07/08 12:04:15;;;;;;;5.60;2.80;;;22.40;1.00;;;;;;4946479;28;20413;-85
2022/07/08 12:06:52;;;;;;;6.95;3.00;;;22.10;68.40;;;;;;4943960;28;20053;-85
2022/07/08 12:09:20;;;;;;;7.47;2.83;;;22.10;34.20;;;;;;4962219;28;20043;-85
2022/07/08 12:11:48;;;;;;;5.38;2.30;;;22.40;1.00;;;;;;4947398;28;20038;-85
2022/07/08 12:14:15;;;;;;;6.97;2.63;;;22.90;9.20;;;;;;4932836;29;20046;-85
2022/07/08 12:16:43;;;;;;;9.50;2.63;;;23.00;1.00;;;;;;4939301;28;20043;-85
2022/07/08 12:19:34;;;;;;;6.05;2.60;;;22.80;50.90;;;;;;4958610;28;20109;-85
2022/07/08 12:22:01;;;;;;;6.05;2.58;;;22.40;24.20;;;;;;4952346;28;20055;-85
2022/07/08 12:24:35;;;;;;;7.70;3.00;;;22.70;99.90;;;;;;4948354;28;20046;-84
2022/07/08 12:27:16;;;;;;;6.47;2.80;;;23.00;10.20;;;;;;4942181;28;20043;-86
2022/07/08 12:29:42;;;;;;;8.52;2.90;;;23.20;1.00;;;;;;4959899;28;20133;-85
2022/07/08 12:32:11;;;;;;;6.53;3.10;;;23.70;23.70;;;;;;4961343;28;20057;-85
2022/07/08 12:34:48;;;;;;;8.85;2.75;;;24.20;1.00;;;;;;4945308;28;20058;-85
2022/07/08 12:37:14;;;;;;;5.43;3.33;;;23.20;96.30;;;;;;4956969;28;20074;-85
2022/07/08 12:39:40;;;;;;;7.60;3.50;;;23.00;18.90;;;;;;4962381;28;20078;-86
2022/07/08 12:42:09;;;;;;;10.27;3.58;;;23.00;1.00;;;;;;4943912;28;20471;-85
2022/07/08 12:44:47;;;;;;;7.03;2.80;;;23.10;13.70;;;;;;4961959;28;20573;-85
2022/07/08 12:47:14;;;;;;;9.80;2.95;;;22.90;14.60;;;;;;4960832;28;20513;-85
2022/07/08 12:49:42;;;;;;;7.22;3.05;;;22.80;90.80;;;;;;4961681;28;20035;-86
2022/07/08 12:52:10;;;;;;;9.80;3.42;;;23.20;75.60;;;;;;4956605;28;20061;-86
2022/07/08 12:54:39;;;;;;;7.30;3.30;;;24.00;99.90;;;;;;4960520;28;20054;-86
2022/07/08 12:57:06;;;;;;;6.50;3.00;;;24.20;1.00;;;;;;4937391;28;20484;-85
2022/07/08 12:59:32;;;;;;;6.78;2.65;;;24.10;1.00;;;;;;4946418;28;20216;-85
2022/07/08 13:01:58;;;;;;;5.82;2.50;;;24.50;1.00;;;;;;4943199;28;20521;-86
2022/07/08 13:04:25;;;;;;;8.77;2.88;;;24.70;1.00;;;;;;4944415;28;20562;-85
2022/07/08 13:06:56;;;;;;;7.35;2.70;;;24.40;1.00;;;;;;4942466;28;20332;-86
2022/07/08 13:09:22;;;;;;;8.15;2.50;;;24.60;1.00;;;;;;4960159;28;20038;-85
2022/07/08 13:11:51;;;;;;;6.60;2.92;;;24.60;1.00;;;;;;4957957;28;20085;-84
2022/07/08 13:14:17;;;;;;;5.85;2.10;;;23.80;1.00;;;;;;4942280;28;20125;-83
2022/07/08 13:16:42;;;;;;;6.85;2.35;;;23.50;1.00;;;;;;4944554;28;20101;-82
2022/07/08 13:19:08;;;;;;;4.18;2.08;;;23.60;1.00;;;;;;4960349;28;20999;-85